sensor_id;sensor_type;location;lat;lon;timestamp;P1;durP1;ratioP1;P2;durP2;ratioP2
66270;SDS011;53063;39.614;8.814;2023-02-23T00:00:46;20.65;;;11.25;;
66270;SDS011;53063;39.614;8.814;2023-02-23T00:03:12;21.67;;;12.13;;
66270;SDS011;53063;39.614;8.814;2023-02-23T00:05:38;22.05;;;12.13;;
66270;SDS011;53063;39.614;8.814;2023-02-23T00:08:04;20.83;;;12.10;;
66270;SDS011;53063;39.614;8.814;2023-02-23T00:10:30;21.48;;;10.80;;
66270;SDS011;53063;39.614;8.814;2023-02-23T00:12:57;23.13;;;11.90;;
66270;SDS011;53063;39.614;8.814;2023-02-23T00:15:25;24.95;;;13.38;;
66270;SDS011;53063;39.614;8.814;2023-02-23T00:17:55;25.83;;;12.60;;
66270;SDS011;53063;39.614;8.814;2023-02-23T00:20:22;21.27;;;11.32;;
66270;SDS011;53063;39.614;8.814;2023-02-23T00:22:54;24.05;;;12.40;;
66270;SDS011;53063;39.614;8.814;2023-02-23T00:25:22;21.65;;;12.45;;
66270;SDS011;53063;39.614;8.814;2023-02-23T00:27:49;23.17;;;11.88;;
66270;SDS011;53063;39.614;8.814;2023-02-23T00:30:17;21.45;;;12.38;;
66270;SDS011;53063;39.614;8.814;2023-02-23T00:32:46;26.25;;;12.63;;
66270;SDS011;53063;39.614;8.814;2023-02-23T00:35:16;19.35;;;11.00;;
66270;SDS011;53063;39.614;8.814;2023-02-23T00:37:46;21.45;;;11.23;;
66270;SDS011;53063;39.614;8.814;2023-02-23T00:40:16;22.30;;;11.63;;
66270;SDS011;53063;39.614;8.814;2023-02-23T00:42:46;22.57;;;11.83;;
66270;SDS011;53063;39.614;8.814;2023-02-23T00:45:13;21.27;;;11.63;;
66270;SDS011;53063;39.614;8.814;2023-02-23T00:47:40;28.48;;;12.40;;
66270;SDS011;53063;39.614;8.814;2023-02-23T00:50:13;26.45;;;12.02;;
66270;SDS011;53063;39.614;8.814;2023-02-23T00:52:41;22.45;;;12.07;;
66270;SDS011;53063;39.614;8.814;2023-02-23T00:55:10;25.77;;;12.68;;
66270;SDS011;53063;39.614;8.814;2023-02-23T00:57:38;21.55;;;11.52;;
66270;SDS011;53063;39.614;8.814;2023-02-23T01:00:04;25.40;;;11.50;;
66270;SDS011;53063;39.614;8.814;2023-02-23T01:02:44;23.88;;;11.82;;
66270;SDS011;53063;39.614;8.814;2023-02-23T01:05:13;24.80;;;12.07;;
66270;SDS011;53063;39.614;8.814;2023-02-23T01:07:41;22.05;;;12.18;;
66270;SDS011;53063;39.614;8.814;2023-02-23T01:10:10;22.42;;;12.02;;
66270;SDS011;53063;39.614;8.814;2023-02-23T01:12:50;23.83;;;12.30;;
66270;SDS011;53063;39.614;8.814;2023-02-23T01:15:17;21.30;;;10.77;;
66270;SDS011;53063;39.614;8.814;2023-02-23T01:17:45;23.30;;;11.27;;
66270;SDS011;53063;39.614;8.814;2023-02-23T01:20:13;20.63;;;10.60;;
66270;SDS011;53063;39.614;8.814;2023-02-23T01:22:45;27.40;;;12.93;;
66270;SDS011;53063;39.614;8.814;2023-02-23T01:25:12;22.00;;;11.10;;
66270;SDS011;53063;39.614;8.814;2023-02-23T01:27:40;25.40;;;11.88;;
66270;SDS011;53063;39.614;8.814;2023-02-23T01:30:08;22.75;;;12.25;;
66270;SDS011;53063;39.614;8.814;2023-02-23T01:32:42;23.15;;;11.30;;
66270;SDS011;53063;39.614;8.814;2023-02-23T01:35:08;23.30;;;11.77;;
66270;SDS011;53063;39.614;8.814;2023-02-23T01:37:37;21.90;;;12.05;;
66270;SDS011;53063;39.614;8.814;2023-02-23T01:40:16;30.63;;;13.25;;
66270;SDS011;53063;39.614;8.814;2023-02-23T01:43:09;23.70;;;12.07;;
66270;SDS011;53063;39.614;8.814;2023-02-23T01:45:37;29.10;;;13.05;;
66270;SDS011;53063;39.614;8.814;2023-02-23T01:48:05;23.42;;;11.90;;
66270;SDS011;53063;39.614;8.814;2023-02-23T01:50:41;26.67;;;12.40;;
66270;SDS011;53063;39.614;8.814;2023-02-23T01:53:17;28.83;;;12.88;;
66270;SDS011;53063;39.614;8.814;2023-02-23T01:55:48;26.67;;;11.70;;
66270;SDS011;53063;39.614;8.814;2023-02-23T01:58:21;25.27;;;12.32;;
66270;SDS011;53063;39.614;8.814;2023-02-23T02:00:49;23.98;;;11.52;;
66270;SDS011;53063;39.614;8.814;2023-02-23T02:06:09;23.40;;;12.63;;
66270;SDS011;53063;39.614;8.814;2023-02-23T02:08:38;26.45;;;13.25;;
66270;SDS011;53063;39.614;8.814;2023-02-23T02:11:17;22.70;;;11.80;;
66270;SDS011;53063;39.614;8.814;2023-02-23T02:14:11;22.42;;;12.25;;
66270;SDS011;53063;39.614;8.814;2023-02-23T02:32:46;26.45;;;11.93;;
66270;SDS011;53063;39.614;8.814;2023-02-23T02:38:11;26.03;;;12.57;;
66270;SDS011;53063;39.614;8.814;2023-02-23T02:41:16;27.20;;;12.68;;
66270;SDS011;53063;39.614;8.814;2023-02-23T02:44:38;24.40;;;12.43;;
66270;SDS011;53063;39.614;8.814;2023-02-23T02:47:32;24.48;;;12.60;;
66270;SDS011;53063;39.614;8.814;2023-02-23T02:52:38;26.73;;;12.20;;
66270;SDS011;53063;39.614;8.814;2023-02-23T02:55:20;25.02;;;11.77;;
66270;SDS011;53063;39.614;8.814;2023-02-23T02:57:54;25.80;;;12.32;;
66270;SDS011;53063;39.614;8.814;2023-02-23T03:00:25;24.17;;;12.43;;
66270;SDS011;53063;39.614;8.814;2023-02-23T03:03:35;21.98;;;11.70;;
66270;SDS011;53063;39.614;8.814;2023-02-23T03:06:32;28.88;;;12.20;;
66270;SDS011;53063;39.614;8.814;2023-02-23T03:10:22;23.48;;;11.48;;
66270;SDS011;53063;39.614;8.814;2023-02-23T03:12:39;28.40;;;12.82;;
66270;SDS011;53063;39.614;8.814;2023-02-23T03:21:26;25.67;;;12.85;;
66270;SDS011;53063;39.614;8.814;2023-02-23T03:27:28;27.55;;;13.40;;
66270;SDS011;53063;39.614;8.814;2023-02-23T03:30:36;27.40;;;13.98;;
66270;SDS011;53063;39.614;8.814;2023-02-23T03:36:50;31.88;;;14.15;;
66270;SDS011;53063;39.614;8.814;2023-02-23T03:39:44;31.17;;;15.30;;
66270;SDS011;53063;39.614;8.814;2023-02-23T03:42:34;29.60;;;15.50;;
66270;SDS011;53063;39.614;8.814;2023-02-23T03:45:20;35.38;;;16.55;;
66270;SDS011;53063;39.614;8.814;2023-02-23T03:48:10;35.08;;;17.83;;
66270;SDS011;53063;39.614;8.814;2023-02-23T03:50:57;32.40;;;16.33;;
66270;SDS011;53063;39.614;8.814;2023-02-23T03:56:52;27.25;;;14.27;;
66270;SDS011;53063;39.614;8.814;2023-02-23T03:59:42;31.95;;;14.52;;
66270;SDS011;53063;39.614;8.814;2023-02-23T04:02:40;33.35;;;15.75;;
66270;SDS011;53063;39.614;8.814;2023-02-23T04:05:27;31.67;;;14.77;;
66270;SDS011;53063;39.614;8.814;2023-02-23T04:08:13;28.00;;;14.32;;
66270;SDS011;53063;39.614;8.814;2023-02-23T04:14:03;27.92;;;13.73;;
66270;SDS011;53063;39.614;8.814;2023-02-23T04:16:34;29.73;;;14.15;;
66270;SDS011;53063;39.614;8.814;2023-02-23T04:19:02;30.70;;;13.65;;
66270;SDS011;53063;39.614;8.814;2023-02-23T04:21:28;27.65;;;13.52;;
66270;SDS011;53063;39.614;8.814;2023-02-23T04:23:53;29.38;;;15.10;;
66270;SDS011;53063;39.614;8.814;2023-02-23T04:26:19;32.40;;;14.98;;
66270;SDS011;53063;39.614;8.814;2023-02-23T04:28:45;29.95;;;15.57;;
66270;SDS011;53063;39.614;8.814;2023-02-23T04:31:11;27.92;;;14.98;;
66270;SDS011;53063;39.614;8.814;2023-02-23T04:33:37;32.08;;;16.75;;
66270;SDS011;53063;39.614;8.814;2023-02-23T04:36:03;34.92;;;17.65;;
66270;SDS011;53063;39.614;8.814;2023-02-23T04:38:30;37.42;;;16.13;;
66270;SDS011;53063;39.614;8.814;2023-02-23T04:40:56;31.05;;;16.10;;
66270;SDS011;53063;39.614;8.814;2023-02-23T04:43:21;33.58;;;17.17;;
66270;SDS011;53063;39.614;8.814;2023-02-23T04:45:47;31.33;;;15.43;;
66270;SDS011;53063;39.614;8.814;2023-02-23T04:48:13;32.65;;;15.25;;
66270;SDS011;53063;39.614;8.814;2023-02-23T04:50:39;33.55;;;16.17;;
66270;SDS011;53063;39.614;8.814;2023-02-23T04:53:05;32.63;;;15.20;;
66270;SDS011;53063;39.614;8.814;2023-02-23T04:55:31;30.20;;;14.95;;
66270;SDS011;53063;39.614;8.814;2023-02-23T04:57:58;30.77;;;15.82;;
66270;SDS011;53063;39.614;8.814;2023-02-23T05:03:16;29.08;;;13.88;;
66270;SDS011;53063;39.614;8.814;2023-02-23T05:05:42;33.97;;;14.68;;
66270;SDS011;53063;39.614;8.814;2023-02-23T05:08:09;28.67;;;14.35;;
66270;SDS011;53063;39.614;8.814;2023-02-23T05:10:35;38.58;;;17.85;;
66270;SDS011;53063;39.614;8.814;2023-02-23T05:13:01;33.85;;;16.30;;
66270;SDS011;53063;39.614;8.814;2023-02-23T05:15:27;33.88;;;14.80;;
66270;SDS011;53063;39.614;8.814;2023-02-23T05:17:53;29.50;;;14.15;;
66270;SDS011;53063;39.614;8.814;2023-02-23T05:20:20;32.03;;;14.57;;
66270;SDS011;53063;39.614;8.814;2023-02-23T05:22:46;38.50;;;16.08;;
66270;SDS011;53063;39.614;8.814;2023-02-23T05:25:12;33.47;;;15.40;;
66270;SDS011;53063;39.614;8.814;2023-02-23T05:27:39;26.13;;;12.90;;
66270;SDS011;53063;39.614;8.814;2023-02-23T05:30:05;24.23;;;11.63;;
66270;SDS011;53063;39.614;8.814;2023-02-23T05:32:32;27.67;;;12.75;;
66270;SDS011;53063;39.614;8.814;2023-02-23T05:34:59;22.38;;;11.40;;
66270;SDS011;53063;39.614;8.814;2023-02-23T05:37:25;25.30;;;13.00;;
66270;SDS011;53063;39.614;8.814;2023-02-23T05:39:51;26.83;;;13.38;;
66270;SDS011;53063;39.614;8.814;2023-02-23T05:42:17;34.80;;;15.88;;
66270;SDS011;53063;39.614;8.814;2023-02-23T05:44:43;32.63;;;15.48;;
66270;SDS011;53063;39.614;8.814;2023-02-23T05:47:09;28.10;;;13.68;;
66270;SDS011;53063;39.614;8.814;2023-02-23T05:49:35;25.88;;;13.30;;
66270;SDS011;53063;39.614;8.814;2023-02-23T05:52:01;30.58;;;12.75;;
66270;SDS011;53063;39.614;8.814;2023-02-23T05:54:27;29.13;;;13.75;;
66270;SDS011;53063;39.614;8.814;2023-02-23T05:56:53;25.48;;;13.32;;
66270;SDS011;53063;39.614;8.814;2023-02-23T05:59:19;27.38;;;13.32;;
66270;SDS011;53063;39.614;8.814;2023-02-23T06:01:45;27.95;;;12.35;;
66270;SDS011;53063;39.614;8.814;2023-02-23T06:04:11;29.52;;;12.65;;
66270;SDS011;53063;39.614;8.814;2023-02-23T06:06:38;27.48;;;12.73;;
66270;SDS011;53063;39.614;8.814;2023-02-23T06:09:04;28.90;;;13.05;;
66270;SDS011;53063;39.614;8.814;2023-02-23T06:11:30;28.83;;;13.00;;
66270;SDS011;53063;39.614;8.814;2023-02-23T06:13:57;29.13;;;13.02;;
66270;SDS011;53063;39.614;8.814;2023-02-23T06:16:24;27.55;;;13.07;;
66270;SDS011;53063;39.614;8.814;2023-02-23T06:18:51;30.30;;;14.25;;
66270;SDS011;53063;39.614;8.814;2023-02-23T06:21:17;30.05;;;13.63;;
66270;SDS011;53063;39.614;8.814;2023-02-23T06:23:43;27.80;;;13.25;;
66270;SDS011;53063;39.614;8.814;2023-02-23T06:26:09;26.80;;;13.48;;
66270;SDS011;53063;39.614;8.814;2023-02-23T06:28:35;29.25;;;14.20;;
66270;SDS011;53063;39.614;8.814;2023-02-23T06:31:01;30.30;;;13.93;;
66270;SDS011;53063;39.614;8.814;2023-02-23T06:33:27;29.23;;;14.27;;
66270;SDS011;53063;39.614;8.814;2023-02-23T06:35:53;29.92;;;13.45;;
66270;SDS011;53063;39.614;8.814;2023-02-23T06:38:20;31.50;;;13.55;;
66270;SDS011;53063;39.614;8.814;2023-02-23T06:40:46;29.98;;;14.10;;
66270;SDS011;53063;39.614;8.814;2023-02-23T06:43:12;28.27;;;13.02;;
66270;SDS011;53063;39.614;8.814;2023-02-23T06:45:38;27.45;;;13.13;;
66270;SDS011;53063;39.614;8.814;2023-02-23T06:48:05;30.13;;;14.50;;
66270;SDS011;53063;39.614;8.814;2023-02-23T06:50:31;31.55;;;13.77;;
66270;SDS011;53063;39.614;8.814;2023-02-23T06:52:57;30.08;;;14.35;;
66270;SDS011;53063;39.614;8.814;2023-02-23T06:55:23;33.25;;;14.63;;
66270;SDS011;53063;39.614;8.814;2023-02-23T06:57:49;31.10;;;14.50;;
66270;SDS011;53063;39.614;8.814;2023-02-23T07:00:16;28.17;;;12.85;;
66270;SDS011;53063;39.614;8.814;2023-02-23T07:02:42;30.15;;;14.10;;
66270;SDS011;53063;39.614;8.814;2023-02-23T07:05:09;29.90;;;14.52;;
66270;SDS011;53063;39.614;8.814;2023-02-23T07:07:35;27.98;;;14.35;;
66270;SDS011;53063;39.614;8.814;2023-02-23T07:10:02;28.92;;;13.95;;
66270;SDS011;53063;39.614;8.814;2023-02-23T07:12:29;34.20;;;15.40;;
66270;SDS011;53063;39.614;8.814;2023-02-23T07:14:55;34.35;;;14.95;;
66270;SDS011;53063;39.614;8.814;2023-02-23T07:17:21;32.33;;;15.57;;
66270;SDS011;53063;39.614;8.814;2023-02-23T07:19:47;32.08;;;14.88;;
66270;SDS011;53063;39.614;8.814;2023-02-23T07:22:13;33.38;;;15.60;;
66270;SDS011;53063;39.614;8.814;2023-02-23T07:24:39;34.90;;;14.80;;
66270;SDS011;53063;39.614;8.814;2023-02-23T07:27:05;32.35;;;14.68;;
66270;SDS011;53063;39.614;8.814;2023-02-23T07:29:31;35.95;;;14.05;;
66270;SDS011;53063;39.614;8.814;2023-02-23T07:31:57;30.10;;;14.25;;
66270;SDS011;53063;39.614;8.814;2023-02-23T07:34:23;30.65;;;14.40;;
66270;SDS011;53063;39.614;8.814;2023-02-23T07:36:49;31.35;;;13.75;;
66270;SDS011;53063;39.614;8.814;2023-02-23T07:39:15;33.10;;;14.93;;
66270;SDS011;53063;39.614;8.814;2023-02-23T07:41:40;36.22;;;15.75;;
66270;SDS011;53063;39.614;8.814;2023-02-23T07:44:16;34.30;;;14.90;;
66270;SDS011;53063;39.614;8.814;2023-02-23T07:46:42;36.22;;;14.73;;
66270;SDS011;53063;39.614;8.814;2023-02-23T07:49:10;33.63;;;14.52;;
66270;SDS011;53063;39.614;8.814;2023-02-23T07:51:37;39.92;;;16.55;;
66270;SDS011;53063;39.614;8.814;2023-02-23T07:54:04;29.58;;;13.90;;
66270;SDS011;53063;39.614;8.814;2023-02-23T07:56:30;31.05;;;14.55;;
66270;SDS011;53063;39.614;8.814;2023-02-23T07:58:56;34.42;;;14.95;;
66270;SDS011;53063;39.614;8.814;2023-02-23T08:01:22;32.08;;;15.70;;
66270;SDS011;53063;39.614;8.814;2023-02-23T08:03:48;33.10;;;14.80;;
66270;SDS011;53063;39.614;8.814;2023-02-23T08:06:15;29.92;;;13.38;;
66270;SDS011;53063;39.614;8.814;2023-02-23T08:08:41;35.13;;;16.77;;
66270;SDS011;53063;39.614;8.814;2023-02-23T08:11:08;35.90;;;15.90;;
66270;SDS011;53063;39.614;8.814;2023-02-23T08:13:34;28.02;;;13.80;;
66270;SDS011;53063;39.614;8.814;2023-02-23T08:16:01;30.38;;;13.43;;
66270;SDS011;53063;39.614;8.814;2023-02-23T08:18:27;33.17;;;14.25;;
66270;SDS011;53063;39.614;8.814;2023-02-23T08:20:56;31.50;;;13.88;;
66270;SDS011;53063;39.614;8.814;2023-02-23T08:23:23;29.25;;;13.93;;
66270;SDS011;53063;39.614;8.814;2023-02-23T08:25:49;26.83;;;12.93;;
66270;SDS011;53063;39.614;8.814;2023-02-23T08:28:15;30.20;;;13.27;;
66270;SDS011;53063;39.614;8.814;2023-02-23T08:30:41;27.65;;;12.18;;
66270;SDS011;53063;39.614;8.814;2023-02-23T08:33:07;28.27;;;12.98;;
66270;SDS011;53063;39.614;8.814;2023-02-23T08:35:33;25.48;;;11.85;;
66270;SDS011;53063;39.614;8.814;2023-02-23T08:37:59;30.10;;;13.77;;
66270;SDS011;53063;39.614;8.814;2023-02-23T08:40:25;29.85;;;13.07;;
66270;SDS011;53063;39.614;8.814;2023-02-23T08:42:51;25.80;;;12.43;;
66270;SDS011;53063;39.614;8.814;2023-02-23T08:45:17;28.13;;;12.77;;
66270;SDS011;53063;39.614;8.814;2023-02-23T08:47:44;29.25;;;13.38;;
66270;SDS011;53063;39.614;8.814;2023-02-23T08:50:10;26.10;;;13.70;;
66270;SDS011;53063;39.614;8.814;2023-02-23T08:52:37;28.85;;;13.38;;
66270;SDS011;53063;39.614;8.814;2023-02-23T08:55:04;32.70;;;14.20;;
66270;SDS011;53063;39.614;8.814;2023-02-23T08:57:32;27.45;;;13.18;;
66270;SDS011;53063;39.614;8.814;2023-02-23T08:59:58;33.20;;;16.45;;
66270;SDS011;53063;39.614;8.814;2023-02-23T09:02:24;32.55;;;14.27;;
66270;SDS011;53063;39.614;8.814;2023-02-23T09:04:51;28.55;;;13.40;;
66270;SDS011;53063;39.614;8.814;2023-02-23T09:07:19;28.05;;;13.40;;
66270;SDS011;53063;39.614;8.814;2023-02-23T09:09:56;30.23;;;13.18;;
66270;SDS011;53063;39.614;8.814;2023-02-23T09:12:23;30.23;;;14.43;;
66270;SDS011;53063;39.614;8.814;2023-02-23T09:14:49;29.00;;;12.98;;
66270;SDS011;53063;39.614;8.814;2023-02-23T09:17:18;29.45;;;12.68;;
66270;SDS011;53063;39.614;8.814;2023-02-23T09:19:47;31.00;;;15.35;;
66270;SDS011;53063;39.614;8.814;2023-02-23T09:22:14;29.20;;;13.68;;
66270;SDS011;53063;39.614;8.814;2023-02-23T09:24:42;32.38;;;14.98;;
66270;SDS011;53063;39.614;8.814;2023-02-23T09:27:08;31.25;;;13.95;;
66270;SDS011;53063;39.614;8.814;2023-02-23T09:29:37;34.92;;;16.02;;
66270;SDS011;53063;39.614;8.814;2023-02-23T09:32:07;34.90;;;16.95;;
66270;SDS011;53063;39.614;8.814;2023-02-23T09:34:34;35.55;;;16.42;;
66270;SDS011;53063;39.614;8.814;2023-02-23T09:37:03;30.67;;;15.25;;
66270;SDS011;53063;39.614;8.814;2023-02-23T09:39:29;39.63;;;17.33;;
66270;SDS011;53063;39.614;8.814;2023-02-23T09:49:36;33.80;;;15.55;;
66270;SDS011;53063;39.614;8.814;2023-02-23T09:52:05;36.00;;;16.98;;
66270;SDS011;53063;39.614;8.814;2023-02-23T09:54:39;38.47;;;17.20;;
66270;SDS011;53063;39.614;8.814;2023-02-23T09:57:06;36.85;;;16.60;;
66270;SDS011;53063;39.614;8.814;2023-02-23T09:59:38;40.28;;;17.35;;
66270;SDS011;53063;39.614;8.814;2023-02-23T10:04:46;36.92;;;17.38;;
66270;SDS011;53063;39.614;8.814;2023-02-23T10:07:55;39.10;;;16.30;;
66270;SDS011;53063;39.614;8.814;2023-02-23T10:10:41;34.10;;;16.42;;
66270;SDS011;53063;39.614;8.814;2023-02-23T10:15:46;37.43;;;16.63;;
66270;SDS011;53063;39.614;8.814;2023-02-23T10:21:37;34.55;;;16.77;;
66270;SDS011;53063;39.614;8.814;2023-02-23T10:26:53;38.30;;;17.52;;
66270;SDS011;53063;39.614;8.814;2023-02-23T10:29:38;34.38;;;16.00;;
66270;SDS011;53063;39.614;8.814;2023-02-23T10:34:55;38.33;;;17.13;;
66270;SDS011;53063;39.614;8.814;2023-02-23T10:37:22;42.80;;;22.67;;
66270;SDS011;53063;39.614;8.814;2023-02-23T10:39:48;36.40;;;15.85;;
66270;SDS011;53063;39.614;8.814;2023-02-23T10:42:22;32.17;;;15.48;;
66270;SDS011;53063;39.614;8.814;2023-02-23T10:44:53;32.38;;;15.80;;
66270;SDS011;53063;39.614;8.814;2023-02-23T10:47:20;31.08;;;14.30;;
66270;SDS011;53063;39.614;8.814;2023-02-23T10:49:49;33.70;;;18.85;;
66270;SDS011;53063;39.614;8.814;2023-02-23T10:52:21;32.55;;;16.67;;
66270;SDS011;53063;39.614;8.814;2023-02-23T10:54:54;35.45;;;17.08;;
66270;SDS011;53063;39.614;8.814;2023-02-23T10:59:58;39.30;;;18.13;;
66270;SDS011;53063;39.614;8.814;2023-02-23T11:02:40;31.55;;;16.13;;
66270;SDS011;53063;39.614;8.814;2023-02-23T11:13:41;26.58;;;14.60;;
66270;SDS011;53063;39.614;8.814;2023-02-23T11:16:23;32.28;;;17.02;;
66270;SDS011;53063;39.614;8.814;2023-02-23T11:19:00;28.20;;;12.65;;
66270;SDS011;53063;39.614;8.814;2023-02-23T11:24:05;30.85;;;17.02;;
66270;SDS011;53063;39.614;8.814;2023-02-23T11:26:50;30.35;;;16.50;;
66270;SDS011;53063;39.614;8.814;2023-02-23T11:32:06;32.95;;;16.70;;
66270;SDS011;53063;39.614;8.814;2023-02-23T11:34:37;32.20;;;16.73;;
66270;SDS011;53063;39.614;8.814;2023-02-23T11:39:49;29.52;;;15.15;;
66270;SDS011;53063;39.614;8.814;2023-02-23T11:42:17;33.53;;;17.13;;
66270;SDS011;53063;39.614;8.814;2023-02-23T11:44:51;29.00;;;15.65;;
66270;SDS011;53063;39.614;8.814;2023-02-23T11:47:31;36.55;;;18.08;;
66270;SDS011;53063;39.614;8.814;2023-02-23T11:49:59;34.22;;;17.05;;
66270;SDS011;53063;39.614;8.814;2023-02-23T11:52:27;37.92;;;19.75;;
66270;SDS011;53063;39.614;8.814;2023-02-23T11:55:06;40.63;;;21.38;;
66270;SDS011;53063;39.614;8.814;2023-02-23T11:57:39;27.27;;;15.43;;
66270;SDS011;53063;39.614;8.814;2023-02-23T12:00:10;30.15;;;16.45;;
66270;SDS011;53063;39.614;8.814;2023-02-23T12:02:47;28.90;;;14.95;;
66270;SDS011;53063;39.614;8.814;2023-02-23T12:05:19;36.67;;;12.77;;
66270;SDS011;53063;39.614;8.814;2023-02-23T12:07:50;21.80;;;11.70;;
66270;SDS011;53063;39.614;8.814;2023-02-23T12:10:41;30.08;;;14.75;;
66270;SDS011;53063;39.614;8.814;2023-02-23T12:16:52;28.50;;;16.27;;
66270;SDS011;53063;39.614;8.814;2023-02-23T12:19:03;22.38;;;13.48;;
66270;SDS011;53063;39.614;8.814;2023-02-23T12:21:38;23.48;;;12.05;;
66270;SDS011;53063;39.614;8.814;2023-02-23T12:24:52;20.30;;;11.00;;
66270;SDS011;53063;39.614;8.814;2023-02-23T12:27:03;19.35;;;10.85;;
66270;SDS011;53063;39.614;8.814;2023-02-23T12:32:47;16.10;;;9.88;;
66270;SDS011;53063;39.614;8.814;2023-02-23T12:35:43;18.88;;;10.68;;
66270;SDS011;53063;39.614;8.814;2023-02-23T12:38:32;17.85;;;8.82;;
66270;SDS011;53063;39.614;8.814;2023-02-23T12:41:19;18.52;;;10.85;;
66270;SDS011;53063;39.614;8.814;2023-02-23T12:46:44;13.57;;;8.30;;
66270;SDS011;53063;39.614;8.814;2023-02-23T12:54:58;14.27;;;8.18;;
66270;SDS011;53063;39.614;8.814;2023-02-23T12:57:36;12.75;;;7.85;;
66270;SDS011;53063;39.614;8.814;2023-02-23T13:03:18;11.18;;;6.97;;
66270;SDS011;53063;39.614;8.814;2023-02-23T13:08:44;12.07;;;6.57;;
66270;SDS011;53063;39.614;8.814;2023-02-23T13:15:00;16.30;;;8.50;;
66270;SDS011;53063;39.614;8.814;2023-02-23T13:19:55;11.73;;;7.43;;
66270;SDS011;53063;39.614;8.814;2023-02-23T13:25:33;14.63;;;7.45;;
66270;SDS011;53063;39.614;8.814;2023-02-23T13:28:20;10.85;;;7.15;;
66270;SDS011;53063;39.614;8.814;2023-02-23T13:30:55;9.55;;;6.80;;
66270;SDS011;53063;39.614;8.814;2023-02-23T13:33:26;12.35;;;7.97;;
66270;SDS011;53063;39.614;8.814;2023-02-23T13:36:00;12.77;;;7.03;;
66270;SDS011;53063;39.614;8.814;2023-02-23T13:38:39;12.15;;;7.75;;
66270;SDS011;53063;39.614;8.814;2023-02-23T13:41:37;12.52;;;8.13;;
66270;SDS011;53063;39.614;8.814;2023-02-23T13:52:38;14.23;;;7.40;;
66270;SDS011;53063;39.614;8.814;2023-02-23T13:55:48;13.90;;;8.18;;
66270;SDS011;53063;39.614;8.814;2023-02-23T13:58:21;14.68;;;8.70;;
66270;SDS011;53063;39.614;8.814;2023-02-23T14:01:07;17.13;;;8.55;;
66270;SDS011;53063;39.614;8.814;2023-02-23T14:06:06;13.88;;;8.15;;
66270;SDS011;53063;39.614;8.814;2023-02-23T14:08:37;14.55;;;7.80;;
66270;SDS011;53063;39.614;8.814;2023-02-23T14:11:06;14.55;;;8.15;;
66270;SDS011;53063;39.614;8.814;2023-02-23T14:13:33;15.73;;;8.23;;
66270;SDS011;53063;39.614;8.814;2023-02-23T14:22:01;12.27;;;6.85;;
66270;SDS011;53063;39.614;8.814;2023-02-23T14:24:30;14.52;;;8.10;;
66270;SDS011;53063;39.614;8.814;2023-02-23T14:29:29;14.02;;;8.38;;
66270;SDS011;53063;39.614;8.814;2023-02-23T14:37:23;13.93;;;8.35;;
66270;SDS011;53063;39.614;8.814;2023-02-23T14:40:17;14.75;;;7.97;;
66270;SDS011;53063;39.614;8.814;2023-02-23T14:42:51;15.07;;;8.40;;
66270;SDS011;53063;39.614;8.814;2023-02-23T14:45:22;13.18;;;8.07;;
66270;SDS011;53063;39.614;8.814;2023-02-23T14:47:51;15.05;;;8.77;;
66270;SDS011;53063;39.614;8.814;2023-02-23T14:50:24;16.05;;;7.38;;
66270;SDS011;53063;39.614;8.814;2023-02-23T14:53:01;12.98;;;6.55;;
66270;SDS011;53063;39.614;8.814;2023-02-23T14:55:29;9.70;;;6.50;;
66270;SDS011;53063;39.614;8.814;2023-02-23T14:57:59;14.25;;;7.13;;
66270;SDS011;53063;39.614;8.814;2023-02-23T15:00:45;15.00;;;7.18;;
66270;SDS011;53063;39.614;8.814;2023-02-23T15:03:13;15.80;;;8.40;;
66270;SDS011;53063;39.614;8.814;2023-02-23T15:05:42;15.57;;;8.07;;
66270;SDS011;53063;39.614;8.814;2023-02-23T15:08:12;20.17;;;8.05;;
66270;SDS011;53063;39.614;8.814;2023-02-23T15:10:42;11.80;;;7.35;;
66270;SDS011;53063;39.614;8.814;2023-02-23T15:13:25;15.63;;;8.07;;
66270;SDS011;53063;39.614;8.814;2023-02-23T15:15:53;12.98;;;7.65;;
66270;SDS011;53063;39.614;8.814;2023-02-23T15:18:29;10.75;;;7.57;;
66270;SDS011;53063;39.614;8.814;2023-02-23T15:20:59;13.45;;;7.78;;
66270;SDS011;53063;39.614;8.814;2023-02-23T15:23:33;12.98;;;7.47;;
66270;SDS011;53063;39.614;8.814;2023-02-23T15:26:14;11.20;;;7.13;;
66270;SDS011;53063;39.614;8.814;2023-02-23T15:31:34;15.00;;;8.98;;
66270;SDS011;53063;39.614;8.814;2023-02-23T15:34:03;18.70;;;10.50;;
66270;SDS011;53063;39.614;8.814;2023-02-23T15:36:34;21.92;;;9.70;;
66270;SDS011;53063;39.614;8.814;2023-02-23T15:39:04;17.15;;;9.27;;
66270;SDS011;53063;39.614;8.814;2023-02-23T15:41:36;16.13;;;9.70;;
66270;SDS011;53063;39.614;8.814;2023-02-23T15:44:22;15.52;;;10.32;;
66270;SDS011;53063;39.614;8.814;2023-02-23T15:46:54;19.38;;;10.85;;
66270;SDS011;53063;39.614;8.814;2023-02-23T15:49:25;17.65;;;10.02;;
66270;SDS011;53063;39.614;8.814;2023-02-23T15:51:59;17.70;;;8.98;;
66270;SDS011;53063;39.614;8.814;2023-02-23T15:54:34;22.60;;;10.40;;
66270;SDS011;53063;39.614;8.814;2023-02-23T15:57:16;17.52;;;9.73;;
66270;SDS011;53063;39.614;8.814;2023-02-23T15:59:50;18.65;;;9.10;;
66270;SDS011;53063;39.614;8.814;2023-02-23T16:02:19;22.88;;;10.45;;
66270;SDS011;53063;39.614;8.814;2023-02-23T16:04:47;17.77;;;10.40;;
66270;SDS011;53063;39.614;8.814;2023-02-23T16:07:18;19.08;;;9.63;;
66270;SDS011;53063;39.614;8.814;2023-02-23T16:09:55;15.77;;;8.80;;
66270;SDS011;53063;39.614;8.814;2023-02-23T16:12:30;19.45;;;10.88;;
66270;SDS011;53063;39.614;8.814;2023-02-23T16:15:01;14.20;;;8.00;;
66270;SDS011;53063;39.614;8.814;2023-02-23T16:22:42;18.08;;;9.70;;
66270;SDS011;53063;39.614;8.814;2023-02-23T16:25:13;20.17;;;9.52;;
66270;SDS011;53063;39.614;8.814;2023-02-23T16:27:42;18.20;;;9.87;;
66270;SDS011;53063;39.614;8.814;2023-02-23T16:30:20;18.83;;;10.85;;
66270;SDS011;53063;39.614;8.814;2023-02-23T16:33:10;20.45;;;11.57;;
66270;SDS011;53063;39.614;8.814;2023-02-23T16:36:17;31.10;;;11.27;;
66270;SDS011;53063;39.614;8.814;2023-02-23T16:41:33;26.50;;;9.25;;
66270;SDS011;53063;39.614;8.814;2023-02-23T16:43:59;18.55;;;10.07;;
66270;SDS011;53063;39.614;8.814;2023-02-23T16:46:31;23.40;;;9.25;;
66270;SDS011;53063;39.614;8.814;2023-02-23T16:49:33;21.23;;;9.32;;
66270;SDS011;53063;39.614;8.814;2023-02-23T16:51:59;20.70;;;10.25;;
66270;SDS011;53063;39.614;8.814;2023-02-23T16:54:25;21.13;;;10.25;;
66270;SDS011;53063;39.614;8.814;2023-02-23T16:56:51;21.85;;;11.35;;
66270;SDS011;53063;39.614;8.814;2023-02-23T16:59:19;20.52;;;10.38;;
66270;SDS011;53063;39.614;8.814;2023-02-23T17:01:47;22.20;;;12.23;;
66270;SDS011;53063;39.614;8.814;2023-02-23T17:04:17;38.55;;;16.80;;
66270;SDS011;53063;39.614;8.814;2023-02-23T17:06:44;32.78;;;14.07;;
66270;SDS011;53063;39.614;8.814;2023-02-23T17:09:19;17.33;;;9.32;;
66270;SDS011;53063;39.614;8.814;2023-02-23T17:11:45;19.95;;;10.30;;
66270;SDS011;53063;39.614;8.814;2023-02-23T17:14:33;28.77;;;14.75;;
66270;SDS011;53063;39.614;8.814;2023-02-23T17:16:58;33.08;;;17.65;;
66270;SDS011;53063;39.614;8.814;2023-02-23T17:19:24;26.30;;;15.82;;
66270;SDS011;53063;39.614;8.814;2023-02-23T17:21:50;25.75;;;15.95;;
66270;SDS011;53063;39.614;8.814;2023-02-23T17:24:16;26.50;;;14.95;;